Time;durP1;ratioP1;P1;durP2;ratioP2;P2;SDS_P1;SDS_P2;PMS_P1;PMS_P2;Temp;Humidity;BMP_temperature;BMP_pressure;BME280_temperature;BME280_humidity;BME280_pressure;Samples;Min_cycle;Max_cycle;Signal;HPM_P1;HPM_P2
2023/08/11 00:00:22;;;;;;;4.35;3.20;;;;;;;;;;5061141;28;20020;-82
2023/08/11 00:02:50;;;;;;;4.97;3.08;;;;;;;;;;5073398;28;20017;-82
2023/08/11 00:05:17;;;;;;;5.03;3.13;;;;;;;;;;5089476;28;20023;-82
2023/08/11 00:07:45;;;;;;;8.07;3.00;;;;;;;;;;5077766;28;20463;-82
2023/08/11 00:10:12;;;;;;;6.35;3.38;;;;;;;;;;5081394;28;20020;-82
2023/08/11 00:12:37;;;;;;;5.80;3.28;;;;;;;;;;5058586;28;20324;-82
2023/08/11 00:15:03;;;;;;;7.38;4.00;;;;;;;;;;5087604;28;20340;-82
2023/08/11 00:17:29;;;;;;;7.22;4.40;;;;;;;;;;5084750;28;20020;-82
2023/08/11 00:19:54;;;;;;;11.15;4.47;;;;;;;;;;5061438;28;20022;-82
2023/08/11 00:22:19;;;;;;;5.07;3.47;;;;;;;;;;5066097;28;20013;-82
2023/08/11 00:24:45;;;;;;;6.32;3.60;;;;;;;;;;5071362;28;20073;-82
2023/08/11 00:27:10;;;;;;;6.32;3.90;;;;;;;;;;5075367;28;20073;-82
2023/08/11 00:29:35;;;;;;;6.35;3.55;;;;;;;;;;5075178;28;20086;-82
2023/08/11 00:32:01;;;;;;;5.68;3.65;;;;;;;;;;5055128;28;20025;-82
2023/08/11 00:34:26;;;;;;;6.18;3.53;;;;;;;;;;5055203;28;20111;-82
2023/08/11 00:36:51;;;;;;;6.43;4.13;;;;;;;;;;5055204;28;20036;-82
2023/08/11 00:39:17;;;;;;;5.03;3.55;;;;;;;;;;5072202;28;20016;-82
2023/08/11 00:41:42;;;;;;;11.70;3.85;;;;;;;;;;5054982;28;20107;-82
2023/08/11 00:44:07;;;;;;;7.38;4.32;;;;;;;;;;5055038;28;20059;-82
2023/08/11 00:46:33;;;;;;;5.75;3.30;;;;;;;;;;5054811;28;20074;-82
2023/08/11 00:48:59;;;;;;;5.43;3.13;;;;;;;;;;5055120;28;20044;-82
2023/08/11 00:51:27;;;;;;;4.97;3.10;;;;;;;;;;5053256;28;20036;-82
2023/08/11 00:53:52;;;;;;;4.18;3.20;;;;;;;;;;5072586;28;20078;-82
2023/08/11 00:56:19;;;;;;;7.45;3.30;;;;;;;;;;5054690;28;20024;-82
2023/08/11 00:58:45;;;;;;;5.88;3.20;;;;;;;;;;5071293;28;20116;-82
2023/08/11 01:01:13;;;;;;;4.68;3.35;;;;;;;;;;5070475;28;20544;-82
2023/08/11 01:03:40;;;;;;;5.22;3.38;;;;;;;;;;5054210;28;20369;-82
2023/08/11 01:06:16;;;;;;;5.82;3.92;;;;;;;;;;5054782;28;20104;-82
2023/08/11 01:09:00;;;;;;;6.13;3.95;;;;;;;;;;5054506;28;20033;-82
2023/08/11 01:11:51;;;;;;;6.88;4.20;;;;;;;;;;5053445;28;20380;-82
2023/08/11 01:14:36;;;;;;;6.18;3.58;;;;;;;;;;5031120;28;20040;-82
2023/08/11 01:17:02;;;;;;;9.77;3.65;;;;;;;;;;5054422;28;20025;-82
2023/08/11 01:19:31;;;;;;;6.88;3.70;;;;;;;;;;5070698;28;20070;-82
2023/08/11 01:21:58;;;;;;;5.28;3.53;;;;;;;;;;5053786;28;20329;-81
2023/08/11 01:24:23;;;;;;;6.30;3.80;;;;;;;;;;5055617;28;20016;-82
2023/08/11 01:26:48;;;;;;;6.18;2.97;;;;;;;;;;5055456;28;20107;-82
2023/08/11 01:29:14;;;;;;;8.40;3.95;;;;;;;;;;5054516;28;20120;-82
2023/08/11 01:31:39;;;;;;;6.65;3.90;;;;;;;;;;5073643;28;20012;-82
2023/08/11 01:34:04;;;;;;;6.95;4.22;;;;;;;;;;5080019;28;20028;-82
2023/08/11 01:36:30;;;;;;;8.55;3.92;;;;;;;;;;5074581;28;20031;-82
2023/08/11 01:38:55;;;;;;;7.18;3.85;;;;;;;;;;5093846;28;20096;-82
2023/08/11 01:41:23;;;;;;;9.23;3.70;;;;;;;;;;5064139;28;20367;-82
2023/08/11 01:43:50;;;;;;;6.07;4.10;;;;;;;;;;5079068;28;20025;-82
2023/08/11 01:46:15;;;;;;;6.35;3.60;;;;;;;;;;5091797;28;20022;-82
2023/08/11 01:48:41;;;;;;;7.65;4.10;;;;;;;;;;5062838;28;20024;-82
2023/08/11 01:51:07;;;;;;;7.15;3.85;;;;;;;;;;5076408;28;20048;-82
2023/08/11 01:53:33;;;;;;;8.77;3.95;;;;;;;;;;5068210;28;20040;-82
2023/08/11 01:55:58;;;;;;;6.00;3.50;;;;;;;;;;5058789;28;20025;-82
2023/08/11 01:58:24;;;;;;;7.82;4.07;;;;;;;;;;5054156;28;20024;-81
2023/08/11 02:00:49;;;;;;;11.27;4.00;;;;;;;;;;5053027;28;20031;-81
2023/08/11 02:03:15;;;;;;;6.38;4.03;;;;;;;;;;5062071;28;20023;-82
2023/08/11 02:05:40;;;;;;;8.23;4.28;;;;;;;;;;5062567;28;20032;-81
2023/08/11 02:08:05;;;;;;;8.32;4.65;;;;;;;;;;5068292;28;20041;-82
2023/08/11 02:10:31;;;;;;;9.15;4.95;;;;;;;;;;5069793;28;20035;-82
2023/08/11 02:12:56;;;;;;;9.93;4.85;;;;;;;;;;5067679;28;20036;-82
2023/08/11 02:15:22;;;;;;;9.13;4.45;;;;;;;;;;5063487;28;20024;-81
2023/08/11 02:17:49;;;;;;;9.13;4.85;;;;;;;;;;5076371;28;20081;-82
2023/08/11 02:20:21;;;;;;;9.65;5.22;;;;;;;;;;5077728;28;20024;-82
2023/08/11 02:22:46;;;;;;;8.50;4.68;;;;;;;;;;5066127;28;20024;-82
2023/08/11 02:25:12;;;;;;;10.35;4.68;;;;;;;;;;5090054;28;20024;-82
2023/08/11 02:27:37;;;;;;;6.47;3.92;;;;;;;;;;5082982;28;20058;-82
2023/08/11 02:30:05;;;;;;;13.90;4.60;;;;;;;;;;5063516;28;20463;-81
2023/08/11 02:32:30;;;;;;;8.50;4.18;;;;;;;;;;5077663;28;20110;-82
2023/08/11 02:34:56;;;;;;;7.28;4.40;;;;;;;;;;5097161;28;20024;-82
2023/08/11 02:37:21;;;;;;;8.40;4.40;;;;;;;;;;5057147;28;20043;-82
2023/08/11 02:39:47;;;;;;;10.52;5.10;;;;;;;;;;5069048;28;20173;-82
2023/08/11 02:42:15;;;;;;;11.63;5.45;;;;;;;;;;5074135;28;20027;-82
2023/08/11 02:44:40;;;;;;;8.82;4.57;;;;;;;;;;5084091;28;20016;-82
2023/08/11 02:47:09;;;;;;;10.88;5.07;;;;;;;;;;5081347;28;20011;-81
2023/08/11 02:49:34;;;;;;;11.20;5.13;;;;;;;;;;5078976;28;20020;-82
2023/08/11 02:52:00;;;;;;;11.48;4.82;;;;;;;;;;5076427;28;20020;-82
2023/08/11 02:54:25;;;;;;;11.20;5.35;;;;;;;;;;5064389;28;20530;-82
2023/08/11 02:56:51;;;;;;;13.50;5.30;;;;;;;;;;5079396;28;20046;-81
2023/08/11 02:59:16;;;;;;;11.25;5.47;;;;;;;;;;5092856;28;20020;-82
2023/08/11 03:01:41;;;;;;;13.57;5.60;;;;;;;;;;5071614;28;20589;-82
2023/08/11 03:04:07;;;;;;;10.55;5.05;;;;;;;;;;5095394;28;20057;-81
2023/08/11 03:06:32;;;;;;;10.57;5.28;;;;;;;;;;5078076;28;20016;-82
2023/08/11 03:09:00;;;;;;;12.32;5.72;;;;;;;;;;5059418;28;20039;-82
2023/08/11 03:11:25;;;;;;;9.18;4.70;;;;;;;;;;5092431;28;20379;-82
2023/08/11 03:13:51;;;;;;;11.57;5.45;;;;;;;;;;5077274;28;20479;-82
2023/08/11 03:16:16;;;;;;;10.68;5.47;;;;;;;;;;5076887;28;20016;-82
2023/08/11 03:18:41;;;;;;;10.90;4.80;;;;;;;;;;5070606;28;20063;-82
2023/08/11 03:21:07;;;;;;;12.57;5.30;;;;;;;;;;5076507;28;20020;-82
2023/08/11 03:23:33;;;;;;;8.90;5.10;;;;;;;;;;5077073;28;20455;-82
2023/08/11 03:25:59;;;;;;;7.97;4.95;;;;;;;;;;5076357;28;20020;-81
2023/08/11 03:28:24;;;;;;;11.63;5.78;;;;;;;;;;5085969;28;20031;-81
2023/08/11 03:30:49;;;;;;;15.05;5.82;;;;;;;;;;5076688;28;20467;-82
2023/08/11 03:33:15;;;;;;;12.02;5.90;;;;;;;;;;5076332;28;20032;-82
2023/08/11 03:35:42;;;;;;;12.63;6.00;;;;;;;;;;5067590;28;20020;-82
2023/08/11 03:38:08;;;;;;;15.27;5.25;;;;;;;;;;5061325;28;20024;-82
2023/08/11 03:40:33;;;;;;;12.45;5.32;;;;;;;;;;5076172;28;20486;-81
2023/08/11 03:42:59;;;;;;;12.15;5.30;;;;;;;;;;5076293;28;20024;-81
2023/08/11 03:45:24;;;;;;;11.43;5.03;;;;;;;;;;5075295;28;20480;-81
2023/08/11 03:47:49;;;;;;;10.95;5.55;;;;;;;;;;5055389;28;20039;-81
2023/08/11 03:50:15;;;;;;;12.05;5.30;;;;;;;;;;5068619;28;20425;-82
2023/08/11 03:52:40;;;;;;;10.07;5.18;;;;;;;;;;5072162;28;20024;-82
2023/08/11 03:55:09;;;;;;;9.20;5.15;;;;;;;;;;5077207;28;20028;-81
2023/08/11 03:57:35;;;;;;;7.93;4.88;;;;;;;;;;5073630;28;20028;-81
2023/08/11 04:00:01;;;;;;;8.98;5.13;;;;;;;;;;5076336;28;20032;-82
2023/08/11 04:02:28;;;;;;;7.80;4.57;;;;;;;;;;5060875;28;20043;-81
2023/08/11 04:04:53;;;;;;;11.93;5.85;;;;;;;;;;5081197;28;20024;-82
2023/08/11 04:07:19;;;;;;;10.63;4.95;;;;;;;;;;5074002;28;20049;-82
2023/08/11 04:09:46;;;;;;;9.68;4.95;;;;;;;;;;5084754;28;20032;-81
2023/08/11 04:12:15;;;;;;;12.30;5.32;;;;;;;;;;5077834;28;20463;-82
2023/08/11 04:14:40;;;;;;;10.55;5.30;;;;;;;;;;5073885;28;20402;-82
2023/08/11 04:17:05;;;;;;;10.18;5.22;;;;;;;;;;5076138;28;20103;-82
2023/08/11 04:19:32;;;;;;;12.55;5.82;;;;;;;;;;5056932;28;20444;-82
2023/08/11 04:21:57;;;;;;;16.98;5.53;;;;;;;;;;5065683;28;20024;-81
2023/08/11 04:24:22;;;;;;;11.15;5.40;;;;;;;;;;5093931;28;20067;-81
2023/08/11 04:26:47;;;;;;;8.63;4.82;;;;;;;;;;5056922;28;20040;-81
2023/08/11 04:29:13;;;;;;;8.52;4.90;;;;;;;;;;5084865;28;20032;-82
2023/08/11 04:31:38;;;;;;;10.02;5.22;;;;;;;;;;5072106;28;20021;-81
2023/08/11 04:34:06;;;;;;;12.15;5.03;;;;;;;;;;5082157;28;20028;-80
2023/08/11 04:36:34;;;;;;;11.20;5.07;;;;;;;;;;5075657;28;20357;-82
2023/08/11 04:38:59;;;;;;;11.07;4.72;;;;;;;;;;5058882;28;20028;-82
2023/08/11 04:41:24;;;;;;;11.63;5.03;;;;;;;;;;5065080;28;20026;-82
2023/08/11 04:43:49;;;;;;;9.68;5.20;;;;;;;;;;5059245;28;20025;-82
2023/08/11 04:46:17;;;;;;;12.90;4.72;;;;;;;;;;5073218;28;20154;-81
2023/08/11 04:48:42;;;;;;;19.25;5.55;;;;;;;;;;5072805;28;20429;-82
2023/08/11 04:51:08;;;;;;;9.40;4.70;;;;;;;;;;5061225;28;20024;-82
2023/08/11 04:53:33;;;;;;;11.82;5.53;;;;;;;;;;5071284;28;20111;-82
2023/08/11 04:55:58;;;;;;;13.23;5.10;;;;;;;;;;5074541;28;20589;-82
2023/08/11 04:58:24;;;;;;;11.23;5.35;;;;;;;;;;5082313;28;20415;-82
2023/08/11 05:00:49;;;;;;;11.55;5.72;;;;;;;;;;5072672;28;20408;-82
2023/08/11 05:03:14;;;;;;;15.52;4.93;;;;;;;;;;5054681;28;20116;-81
2023/08/11 05:05:41;;;;;;;12.73;4.97;;;;;;;;;;5073843;28;20084;-81
2023/08/11 05:08:06;;;;;;;10.88;5.28;;;;;;;;;;5067130;28;20540;-81
2023/08/11 05:10:32;;;;;;;8.80;5.53;;;;;;;;;;5072364;28;20016;-82
2023/08/11 05:12:59;;;;;;;10.05;4.53;;;;;;;;;;5054512;28;20043;-82
2023/08/11 05:15:25;;;;;;;10.82;4.85;;;;;;;;;;5057373;28;20032;-82
2023/08/11 05:17:50;;;;;;;12.00;5.57;;;;;;;;;;5070151;28;20017;-81
2023/08/11 05:20:16;;;;;;;9.90;4.88;;;;;;;;;;5068289;28;20111;-81
2023/08/11 05:22:43;;;;;;;15.75;5.18;;;;;;;;;;5092774;28;20405;-82
2023/08/11 05:25:09;;;;;;;12.07;5.47;;;;;;;;;;5064800;28;20032;-82
2023/08/11 05:27:34;;;;;;;11.95;5.18;;;;;;;;;;5055955;28;20020;-82
2023/08/11 05:30:00;;;;;;;11.23;5.03;;;;;;;;;;5073896;28;20107;-82
2023/08/11 05:32:26;;;;;;;8.93;5.03;;;;;;;;;;5072284;28;20035;-81
2023/08/11 05:34:55;;;;;;;8.55;4.80;;;;;;;;;;5094529;28;20127;-81
2023/08/11 05:37:21;;;;;;;10.32;5.40;;;;;;;;;;5063207;28;20017;-81
2023/08/11 05:39:54;;;;;;;13.23;5.45;;;;;;;;;;5086192;28;20025;-81
2023/08/11 05:42:19;;;;;;;12.20;5.15;;;;;;;;;;5057533;28;20126;-82
2023/08/11 05:44:45;;;;;;;10.15;4.85;;;;;;;;;;5074714;28;20036;-82
2023/08/11 05:47:10;;;;;;;10.88;4.72;;;;;;;;;;5075839;28;20421;-81
2023/08/11 05:49:35;;;;;;;10.65;5.20;;;;;;;;;;5087605;28;20104;-82
2023/08/11 05:52:01;;;;;;;10.73;4.85;;;;;;;;;;5066739;28;20116;-82
2023/08/11 05:54:26;;;;;;;8.65;4.45;;;;;;;;;;5078024;28;20111;-81
2023/08/11 05:56:54;;;;;;;12.98;5.07;;;;;;;;;;5078729;28;20020;-81
2023/08/11 05:59:19;;;;;;;12.00;4.45;;;;;;;;;;5062199;28;20030;-82
2023/08/11 06:01:47;;;;;;;6.85;3.97;;;;;;;;;;5058453;28;20463;-82
2023/08/11 06:04:12;;;;;;;13.27;4.13;;;;;;;;;;5058058;28;20024;-81
2023/08/11 06:06:38;;;;;;;11.82;4.13;;;;;;;;;;5062079;28;20847;-81
2023/08/11 06:09:07;;;;;;;13.15;4.30;;;;;;;;;;5056234;28;20036;-82
2023/08/11 06:11:33;;;;;;;8.32;4.03;;;;;;;;;;5061789;28;20336;-81
2023/08/11 06:13:58;;;;;;;10.38;4.20;;;;;;;;;;5056715;28;20031;-82
2023/08/11 06:16:23;;;;;;;8.20;4.32;;;;;;;;;;5063197;28;20020;-82
2023/08/11 06:18:49;;;;;;;8.43;3.42;;;;;;;;;;5067630;28;20108;-81
2023/08/11 06:21:17;;;;;;;4.85;3.10;;;;;;;;;;5064513;28;20142;-80
2023/08/11 06:23:43;;;;;;;8.27;3.85;;;;;;;;;;5088027;28;20504;-82
2023/08/11 06:26:09;;;;;;;5.95;3.22;;;;;;;;;;5057827;28;20036;-82
2023/08/11 06:28:34;;;;;;;10.10;3.60;;;;;;;;;;5077730;28;20019;-80
2023/08/11 06:31:01;;;;;;;6.28;3.90;;;;;;;;;;5059785;28;20078;-82
2023/08/11 06:33:27;;;;;;;9.57;3.40;;;;;;;;;;5052763;28;20525;-82
2023/08/11 06:35:53;;;;;;;6.50;3.28;;;;;;;;;;5065463;28;20440;-81
2023/08/11 06:38:18;;;;;;;7.07;3.30;;;;;;;;;;5057371;28;20032;-82
2023/08/11 06:40:44;;;;;;;8.80;3.13;;;;;;;;;;5058067;28;20021;-82
2023/08/11 06:43:09;;;;;;;4.60;2.60;;;;;;;;;;5071585;28;20024;-82
2023/08/11 06:45:35;;;;;;;4.45;2.63;;;;;;;;;;5064917;28;20025;-82
2023/08/11 06:48:00;;;;;;;5.57;2.95;;;;;;;;;;5058895;28;20032;-82
2023/08/11 06:50:26;;;;;;;7.45;3.17;;;;;;;;;;5060880;28;20024;-82
2023/08/11 06:52:51;;;;;;;7.32;3.25;;;;;;;;;;5067968;28;20024;-81
2023/08/11 06:55:16;;;;;;;8.63;3.33;;;;;;;;;;5068970;28;20024;-81
2023/08/11 06:57:42;;;;;;;8.80;3.47;;;;;;;;;;5078427;28;20016;-82
2023/08/11 07:00:07;;;;;;;9.38;3.20;;;;;;;;;;5086054;28;20016;-81
2023/08/11 07:02:36;;;;;;;6.47;3.05;;;;;;;;;;5075633;28;20016;-82
2023/08/11 07:05:02;;;;;;;5.05;2.97;;;;;;;;;;5080310;28;20107;-79
2023/08/11 07:07:28;;;;;;;4.88;3.17;;;;;;;;;;5094522;28;20073;-80
2023/08/11 07:09:53;;;;;;;6.55;3.03;;;;;;;;;;5071790;28;20024;-79
2023/08/11 07:12:18;;;;;;;8.57;3.83;;;;;;;;;;5068887;28;20138;-79
2023/08/11 07:14:44;;;;;;;8.27;3.75;;;;;;;;;;5094255;28;20016;-79
2023/08/11 07:17:09;;;;;;;5.68;3.60;;;;;;;;;;5094613;28;20012;-79
2023/08/11 07:19:35;;;;;;;5.22;3.03;;;;;;;;;;5069202;28;20020;-80
2023/08/11 07:22:00;;;;;;;8.73;3.22;;;;;;;;;;5048597;28;20021;-79
2023/08/11 07:24:25;;;;;;;6.40;3.20;;;;;;;;;;5052500;28;20024;-79
2023/08/11 07:26:51;;;;;;;8.82;3.00;;;;;;;;;;5052876;28;20024;-79
2023/08/11 07:29:16;;;;;;;5.18;2.83;;;;;;;;;;5056967;28;20161;-80
2023/08/11 07:31:41;;;;;;;10.57;3.05;;;;;;;;;;5073872;28;20092;-80
2023/08/11 07:34:07;;;;;;;4.88;2.88;;;;;;;;;;5069575;28;20028;-79
2023/08/11 07:36:32;;;;;;;4.63;2.58;;;;;;;;;;5077904;28;20016;-80
2023/08/11 07:38:57;;;;;;;4.68;2.60;;;;;;;;;;5062518;28;20030;-79
2023/08/11 07:41:22;;;;;;;5.70;3.15;;;;;;;;;;5075352;28;20019;-79
2023/08/11 07:43:48;;;;;;;7.30;2.80;;;;;;;;;;5060665;28;20012;-79
2023/08/11 07:46:13;;;;;;;5.15;3.03;;;;;;;;;;5070973;28;20111;-79
2023/08/11 07:48:38;;;;;;;4.40;2.80;;;;;;;;;;5075332;28;20020;-80
2023/08/11 07:51:04;;;;;;;3.95;2.50;;;;;;;;;;5075171;28;20081;-80
2023/08/11 07:53:31;;;;;;;4.80;2.55;;;;;;;;;;5062228;28;20051;-79
2023/08/11 07:55:57;;;;;;;5.97;3.25;;;;;;;;;;5073537;28;20459;-80
2023/08/11 07:58:23;;;;;;;5.95;3.03;;;;;;;;;;5064465;28;20103;-80
2023/08/11 08:00:48;;;;;;;5.07;2.53;;;;;;;;;;5075621;28;20043;-79
2023/08/11 08:03:16;;;;;;;6.68;2.53;;;;;;;;;;5075179;28;20032;-79
2023/08/11 08:05:41;;;;;;;5.57;2.58;;;;;;;;;;5070675;28;20039;-80
2023/08/11 08:08:06;;;;;;;6.82;3.53;;;;;;;;;;5060937;28;20382;-79
2023/08/11 08:10:32;;;;;;;5.15;2.60;;;;;;;;;;5067185;28;20017;-79
2023/08/11 08:12:58;;;;;;;4.95;3.13;;;;;;;;;;5073133;28;20055;-79
2023/08/11 08:15:24;;;;;;;4.15;2.65;;;;;;;;;;5076668;28;20451;-79
2023/08/11 08:17:52;;;;;;;3.63;2.33;;;;;;;;;;5059100;28;20383;-79
2023/08/11 08:20:18;;;;;;;10.05;2.67;;;;;;;;;;5055804;28;20087;-79
2023/08/11 08:22:49;;;;;;;3.63;2.47;;;;;;;;;;5082738;28;20056;-79
2023/08/11 08:25:15;;;;;;;5.32;3.20;;;;;;;;;;5052398;28;20095;-83
2023/08/11 08:27:41;;;;;;;5.25;2.97;;;;;;;;;;5057351;28;20437;-80
2023/08/11 08:30:07;;;;;;;7.15;3.05;;;;;;;;;;5056047;28;20024;-80
2023/08/11 08:32:33;;;;;;;7.03;2.90;;;;;;;;;;5045444;28;20420;-80
2023/08/11 08:34:58;;;;;;;3.90;2.30;;;;;;;;;;5071417;28;20020;-80
2023/08/11 08:37:28;;;;;;;5.53;2.58;;;;;;;;;;5061970;28;20405;-80
2023/08/11 08:39:53;;;;;;;9.43;3.00;;;;;;;;;;5068725;28;20016;-80
2023/08/11 08:42:19;;;;;;;4.32;2.67;;;;;;;;;;5074428;28;20064;-80
2023/08/11 08:44:47;;;;;;;5.20;2.95;;;;;;;;;;5073393;28;20028;-80
2023/08/11 08:47:12;;;;;;;9.45;4.07;;;;;;;;;;5065410;28;20383;-79
2023/08/11 08:49:38;;;;;;;5.50;3.10;;;;;;;;;;5060317;28;20027;-80
2023/08/11 08:52:07;;;;;;;7.72;3.80;;;;;;;;;;5054331;28;20035;-79
2023/08/11 08:54:33;;;;;;;4.25;2.90;;;;;;;;;;5059932;28;20012;-79
2023/08/11 08:56:59;;;;;;;7.75;3.00;;;;;;;;;;5092159;28;20016;-79
2023/08/11 08:59:24;;;;;;;5.75;2.50;;;;;;;;;;5074243;28;20631;-84
2023/08/11 09:01:50;;;;;;;8.75;3.35;;;;;;;;;;5052143;28;20021;-81
2023/08/11 09:04:16;;;;;;;4.82;2.78;;;;;;;;;;5044677;28;20086;-80
2023/08/11 09:06:41;;;;;;;5.10;3.40;;;;;;;;;;5037390;28;20028;-84
2023/08/11 09:09:08;;;;;;;11.00;4.68;;;;;;;;;;5061608;28;20058;-80
2023/08/11 09:11:34;;;;;;;4.22;2.97;;;;;;;;;;5069101;28;20510;-80
2023/08/11 09:14:03;;;;;;;5.68;2.80;;;;;;;;;;5054991;28;20123;-80
2023/08/11 09:16:28;;;;;;;4.47;2.63;;;;;;;;;;5066892;28;20024;-80
2023/08/11 09:18:53;;;;;;;8.75;3.88;;;;;;;;;;5066198;28;20020;-80
2023/08/11 09:21:22;;;;;;;8.02;3.38;;;;;;;;;;5062420;28;20055;-80
2023/08/11 09:23:47;;;;;;;8.02;3.10;;;;;;;;;;5067555;28;20425;-80
2023/08/11 09:26:13;;;;;;;5.72;3.15;;;;;;;;;;5059926;28;20024;-81
2023/08/11 09:28:39;;;;;;;5.03;3.10;;;;;;;;;;5069063;28;20073;-80
2023/08/11 09:31:06;;;;;;;4.72;3.40;;;;;;;;;;5074440;28;20108;-81
2023/08/11 09:33:33;;;;;;;4.30;2.45;;;;;;;;;;5070613;28;20082;-81
2023/08/11 09:35:59;;;;;;;6.70;2.83;;;;;;;;;;5067417;28;20029;-80
2023/08/11 09:38:25;;;;;;;7.13;2.85;;;;;;;;;;5055835;28;20361;-81
2023/08/11 09:40:51;;;;;;;8.60;3.13;;;;;;;;;;5073056;28;20016;-81
2023/08/11 09:43:16;;;;;;;5.13;2.92;;;;;;;;;;5056717;28;20376;-80
2023/08/11 09:45:41;;;;;;;5.53;3.20;;;;;;;;;;5089357;28;20042;-81
2023/08/11 09:48:08;;;;;;;4.03;2.70;;;;;;;;;;5092865;28;20455;-82
2023/08/11 09:50:34;;;;;;;5.35;2.97;;;;;;;;;;5061415;28;20050;-82
2023/08/11 09:53:00;;;;;;;5.47;2.63;;;;;;;;;;5068812;28;20028;-80
2023/08/11 09:55:25;;;;;;;8.00;3.45;;;;;;;;;;5092283;28;20139;-80
2023/08/11 09:57:56;;;;;;;4.13;2.90;;;;;;;;;;5066281;28;20094;-81
2023/08/11 10:00:21;;;;;;;7.15;2.75;;;;;;;;;;5069271;28;20492;-80
2023/08/11 10:02:51;;;;;;;5.60;2.35;;;;;;;;;;5091766;28;20019;-81
2023/08/11 10:05:17;;;;;;;5.65;2.13;;;;;;;;;;5073824;28;20047;-81
2023/08/11 10:07:44;;;;;;;5.50;2.38;;;;;;;;;;5053859;28;20490;-80
2023/08/11 10:10:20;;;;;;;6.80;2.53;;;;;;;;;;5054253;28;20059;-80
2023/08/11 10:12:52;;;;;;;3.35;1.60;;;;;;;;;;5063571;28;20028;-81
2023/08/11 10:15:17;;;;;;;;;;;;;;;;;;5054027;28;20037;-81
2023/08/11 10:17:45;;;;;;;4.95;1.83;;;;;;;;;;5053587;28;19908;-82
2023/08/11 10:20:11;;;;;;;3.80;2.40;;;;;;;;;;5069836;28;20027;-81
2023/08/11 10:22:36;;;;;;;5.18;2.65;;;;;;;;;;5053540;28;20025;-81
2023/08/11 10:25:04;;;;;;;7.45;3.20;;;;;;;;;;5055649;28;20120;-82
2023/08/11 10:27:29;;;;;;;8.73;2.63;;;;;;;;;;5052198;28;20047;-80
2023/08/11 10:29:55;;;;;;;4.35;2.42;;;;;;;;;;5061595;28;20479;-81
2023/08/11 10:32:22;;;;;;;2.50;1.80;;;;;;;;;;5073282;28;20459;-81
2023/08/11 10:34:49;;;;;;;9.05;2.15;;;;;;;;;;5073849;28;20020;-80
2023/08/11 10:37:14;;;;;;;3.58;2.20;;;;;;;;;;5095566;28;20235;-81
2023/08/11 10:39:40;;;;;;;3.85;2.22;;;;;;;;;;5077013;28;20012;-81
2023/08/11 10:42:06;;;;;;;4.45;2.38;;;;;;;;;;5095038;28;20053;-81
2023/08/11 10:44:33;;;;;;;4.85;2.47;;;;;;;;;;5064060;28;20400;-82
2023/08/11 10:46:59;;;;;;;3.35;2.17;;;;;;;;;;5076970;28;20040;-81
2023/08/11 10:49:35;;;;;;;6.20;2.15;;;;;;;;;;5076653;28;20073;-81
2023/08/11 10:52:01;;;;;;;3.22;2.15;;;;;;;;;;5074204;28;20097;-81
2023/08/11 10:54:29;;;;;;;3.58;2.60;;;;;;;;;;5076043;28;20070;-81
2023/08/11 10:56:58;;;;;;;3.15;2.17;;;;;;;;;;5077042;28;20042;-81
2023/08/11 10:59:25;;;;;;;2.90;1.88;;;;;;;;;;5065547;28;20016;-81
2023/08/11 11:01:51;;;;;;;4.10;2.25;;;;;;;;;;5065998;28;20077;-80
2023/08/11 11:04:18;;;;;;;4.20;2.95;;;;;;;;;;5072018;28;20055;-81
2023/08/11 11:06:53;;;;;;;4.65;2.53;;;;;;;;;;5078639;28;20020;-81
2023/08/11 11:09:18;;;;;;;5.78;2.85;;;;;;;;;;5077084;28;20076;-80
2023/08/11 11:11:44;;;;;;;4.57;2.40;;;;;;;;;;5077153;28;20482;-81
2023/08/11 11:14:10;;;;;;;4.93;2.90;;;;;;;;;;5076525;28;20379;-81
2023/08/11 11:16:36;;;;;;;8.27;2.50;;;;;;;;;;5076777;28;20019;-81
2023/08/11 11:19:03;;;;;;;4.63;2.38;;;;;;;;;;5066352;28;20036;-81
2023/08/11 11:21:28;;;;;;;6.10;2.55;;;;;;;;;;5074399;28;20417;-81
2023/08/11 11:23:54;;;;;;;6.13;3.08;;;;;;;;;;5076449;28;20008;-81
2023/08/11 11:26:23;;;;;;;7.85;3.17;;;;;;;;;;5080344;28;20048;-80
2023/08/11 11:28:49;;;;;;;3.83;2.50;;;;;;;;;;5076283;28;20301;-81
2023/08/11 11:31:15;;;;;;;6.55;3.00;;;;;;;;;;5076083;28;20114;-81
2023/08/11 11:33:41;;;;;;;4.18;2.72;;;;;;;;;;5076264;28;20012;-81
2023/08/11 11:36:06;;;;;;;4.70;2.78;;;;;;;;;;5094291;28;20070;-81
2023/08/11 11:38:32;;;;;;;4.90;3.00;;;;;;;;;;5071410;28;20020;-80
2023/08/11 11:40:58;;;;;;;6.03;2.28;;;;;;;;;;5075722;28;20172;-80
2023/08/11 11:43:23;;;;;;;4.80;2.38;;;;;;;;;;5075935;28;20066;-81
2023/08/11 11:45:52;;;;;;;6.00;2.95;;;;;;;;;;5075628;28;20490;-81
2023/08/11 11:48:17;;;;;;;4.95;2.95;;;;;;;;;;5075320;28;20414;-81
2023/08/11 11:50:42;;;;;;;3.25;2.22;;;;;;;;;;5075773;28;20028;-80
2023/08/11 11:53:08;;;;;;;2.55;1.83;;;;;;;;;;5090367;28;20024;-81
2023/08/11 11:55:42;;;;;;;4.80;2.53;;;;;;;;;;5075356;28;20016;-81
2023/08/11 11:58:07;;;;;;;6.47;2.95;;;;;;;;;;5075876;28;20382;-81
2023/08/11 12:00:32;;;;;;;9.80;3.38;;;;;;;;;;5075642;28;20193;-80
2023/08/11 12:02:58;;;;;;;3.15;2.25;;;;;;;;;;5073837;28;20023;-81
2023/08/11 12:05:25;;;;;;;5.57;3.00;;;;;;;;;;5075488;28;20016;-81
2023/08/11 12:07:50;;;;;;;4.85;3.00;;;;;;;;;;5075111;28;20028;-81
2023/08/11 12:10:20;;;;;;;4.57;2.65;;;;;;;;;;5075284;28;20102;-81
2023/08/11 12:12:47;;;;;;;4.15;2.83;;;;;;;;;;5093207;28;20409;-80
2023/08/11 12:15:17;;;;;;;4.50;3.15;;;;;;;;;;5075335;28;20535;-81
2023/08/11 12:17:47;;;;;;;4.18;2.97;;;;;;;;;;5048053;28;20020;-80
2023/08/11 12:20:17;;;;;;;4.10;2.17;;;;;;;;;;5093648;28;20023;-81
2023/08/11 12:22:42;;;;;;;6.63;2.17;;;;;;;;;;5075030;28;20478;-81
2023/08/11 12:25:08;;;;;;;5.82;3.00;;;;;;;;;;5077099;28;20016;-81
2023/08/11 12:27:38;;;;;;;4.03;2.70;;;;;;;;;;5070612;28;20389;-81
2023/08/11 12:30:10;;;;;;;4.07;2.90;;;;;;;;;;5067111;28;20423;-81
2023/08/11 12:32:38;;;;;;;5.05;2.90;;;;;;;;;;5075848;28;20024;-81
2023/08/11 12:35:03;;;;;;;3.10;2.10;;;;;;;;;;5075925;28;20043;-81
2023/08/11 12:37:29;;;;;;;4.78;2.85;;;;;;;;;;5077038;28;20024;-81
2023/08/11 12:39:57;;;;;;;5.47;2.20;;;;;;;;;;5076087;28;20089;-81
2023/08/11 12:42:23;;;;;;;5.38;3.00;;;;;;;;;;5072136;28;20016;-81
2023/08/11 12:44:48;;;;;;;6.45;3.05;;;;;;;;;;5066174;28;20096;-81
2023/08/11 12:47:13;;;;;;;5.30;2.75;;;;;;;;;;5093121;28;20475;-81
2023/08/11 12:49:39;;;;;;;6.63;3.05;;;;;;;;;;5074634;28;20187;-81
2023/08/11 12:52:07;;;;;;;3.88;2.60;;;;;;;;;;5068668;28;20025;-81
2023/08/11 12:54:32;;;;;;;4.10;2.35;;;;;;;;;;5046826;28;20443;-81
2023/08/11 12:56:58;;;;;;;6.15;2.35;;;;;;;;;;5071331;28;20020;-81
2023/08/11 12:59:24;;;;;;;3.42;2.15;;;;;;;;;;5071130;28;20017;-80
2023/08/11 13:01:50;;;;;;;3.40;2.03;;;;;;;;;;5092608;28;20050;-81
2023/08/11 13:04:15;;;;;;;4.75;2.13;;;;;;;;;;5074159;28;20024;-81
2023/08/11 13:06:40;;;;;;;8.68;2.53;;;;;;;;;;5074515;28;20467;-82
2023/08/11 13:09:07;;;;;;;2.55;1.85;;;;;;;;;;5074598;28;20020;-81
2023/08/11 13:11:32;;;;;;;4.68;2.67;;;;;;;;;;5074242;28;20084;-81
2023/08/11 13:13:58;;;;;;;6.65;2.70;;;;;;;;;;5074005;28;20028;-81
2023/08/11 13:16:23;;;;;;;3.90;2.20;;;;;;;;;;5074267;28;20009;-80
2023/08/11 13:18:49;;;;;;;3.72;2.45;;;;;;;;;;5074164;28;20024;-80
2023/08/11 13:21:14;;;;;;;6.13;2.65;;;;;;;;;;5092286;28;20170;-81
2023/08/11 13:23:39;;;;;;;4.88;2.85;;;;;;;;;;5067725;28;20020;-81
2023/08/11 13:26:05;;;;;;;3.85;2.42;;;;;;;;;;5073960;28;20040;-81
2023/08/11 13:28:38;;;;;;;4.05;2.03;;;;;;;;;;5073964;28;20016;-81
2023/08/11 13:31:03;;;;;;;6.47;2.67;;;;;;;;;;5074246;28;20047;-81
2023/08/11 13:33:28;;;;;;;9.55;2.30;;;;;;;;;;5073826;28;20020;-81
2023/08/11 13:35:54;;;;;;;4.05;2.40;;;;;;;;;;5074161;28;20134;-81
2023/08/11 13:38:19;;;;;;;4.55;2.38;;;;;;;;;;5074001;28;20103;-81
2023/08/11 13:40:45;;;;;;;2.92;2.28;;;;;;;;;;5074014;28;20031;-81
2023/08/11 13:43:10;;;;;;;7.07;2.45;;;;;;;;;;5074217;28;20070;-81
2023/08/11 13:45:35;;;;;;;4.63;2.08;;;;;;;;;;5073911;28;20069;-81
2023/08/11 13:48:01;;;;;;;3.00;2.10;;;;;;;;;;5074222;28;20376;-81
2023/08/11 13:50:26;;;;;;;4.55;2.15;;;;;;;;;;5074205;28;20020;-81
2023/08/11 13:52:51;;;;;;;5.65;2.30;;;;;;;;;;5064568;28;20380;-81
2023/08/11 13:55:24;;;;;;;4.38;2.00;;;;;;;;;;5074346;28;20021;-81
2023/08/11 13:57:49;;;;;;;3.35;2.00;;;;;;;;;;5074257;28;20012;-80
2023/08/11 14:00:15;;;;;;;4.35;2.30;;;;;;;;;;5075935;28;20117;-81
2023/08/11 14:02:40;;;;;;;2.92;2.10;;;;;;;;;;5075052;28;20020;-81
2023/08/11 14:05:06;;;;;;;5.55;2.38;;;;;;;;;;5074876;28;20103;-81
2023/08/11 14:07:34;;;;;;;13.20;2.90;;;;;;;;;;5071387;28;20021;-81
2023/08/11 14:09:59;;;;;;;4.13;2.38;;;;;;;;;;5061462;28;20032;-81
2023/08/11 14:12:25;;;;;;;4.25;2.25;;;;;;;;;;5078399;28;20035;-81
2023/08/11 14:14:50;;;;;;;4.50;2.30;;;;;;;;;;5077905;28;20035;-81
2023/08/11 14:17:15;;;;;;;7.68;2.00;;;;;;;;;;5096714;28;20477;-81
2023/08/11 14:19:41;;;;;;;3.83;2.35;;;;;;;;;;5096852;28;20028;-81
2023/08/11 14:22:06;;;;;;;2.70;2.00;;;;;;;;;;5077717;28;20439;-82
2023/08/11 14:24:31;;;;;;;6.30;2.63;;;;;;;;;;5068052;28;20013;-81
2023/08/11 14:26:57;;;;;;;7.05;2.20;;;;;;;;;;5072754;28;20031;-80
2023/08/11 14:29:22;;;;;;;5.50;2.20;;;;;;;;;;5077597;28;20470;-79
2023/08/11 14:31:47;;;;;;;3.33;2.35;;;;;;;;;;5077613;28;20016;-81
2023/08/11 14:34:13;;;;;;;4.88;2.33;;;;;;;;;;5077377;28;20496;-81